Terminal Aerodrome Forecast
Issued by NWS

Home | Current Version | Previous Version | Text Only | Print | Product List | Glossary On
Versions: 1 2 3 4 5 6 7 8 9 10 11 12 13 14 15
000
FTUS43 KIND 060527
TAFHUF
TAF
KHUF 060527Z 0606/0706 10005KT P6SM OVC200
     FM061000 07004KT P6SM VCSH OVC040
     FM061200 04004KT P6SM VCSH OVC025
     FM061500 34005KT P6SM VCSH OVC020
     FM061800 32009KT P6SM BKN040
     FM062000 31011KT P6SM BKN025
     FM070000 30010KT P6SM SCT060=

USA.gov is the U.S. government's official web portal to all federal, state and local government web resources and services.